KPRS

Presidio Lely International Airport

Presidio, Texas, USA
METAR KPRS 191915Z AUTO 15006KT 10SM SCT050 BKN065 BKN100 29/17 A2996 RMK AO2 LTG DSNT SE T02940170
Observed Flight Rules
Sep-19 @ 19:15 UTC (6 minutes ago) Visual Flight Rules
Wind Visibility Clouds
150° at 6 knots 10 miles
  • Scattered at 5,000' AGL
  • Broken at 6,500' AGL
  • Broken at 10,000' AGL
Temperatures Readings
Current 29°C / 84°F
Dewpoint 17°C / 63°F
Humidity 48%
Altimeter 29.96" Hg
Pressure 1015 hPa
Elevation 896
METAR KPRS 191915Z AUTO 15006KT 10SM SCT050 BKN065 BKN100 29/17 A2996 RMK AO2 LTG DSNT SE T02940170
Observed Flight Rules
Sep-19 @ 19:15 UTC
(6 minutes ago)
VFR
Wind Visibility
150° at 6 knots 10 miles
Clouds
  • Scattered at 5,000' AGL
  • Broken at 6,500' AGL
  • Broken at 10,000' AGL
Temperature Dewpoint
29°C / 84°F 17°C / 63°F
Humidity Altimeter Pressure
48% 29.96" Hg 1015 hPa